sensor_id;sensor_type;location;lat;lon;timestamp;temperature;humidity
49901;DHT22;35789;48.414;12.768;2023-11-22T00:00:00;6.5;99.9
49901;DHT22;35789;48.414;12.768;2023-11-22T00:05:00;6.5;99.9
49901;DHT22;35789;48.414;12.768;2023-11-22T00:10:00;6.5;99.9
49901;DHT22;35789;48.414;12.768;2023-11-22T00:15:00;6.5;99.9
49901;DHT22;35789;48.414;12.768;2023-11-22T00:20:00;6.5;99.9
49901;DHT22;35789;48.414;12.768;2023-11-22T00:25:00;6.5;99.9
49901;DHT22;35789;48.414;12.768;2023-11-22T00:30:00;6.5;99.9
49901;DHT22;35789;48.414;12.768;2023-11-22T00:35:00;6.5;99.9
49901;DHT22;35789;48.414;12.768;2023-11-22T00:40:00;6.5;99.9
49901;DHT22;35789;48.414;12.768;2023-11-22T00:45:00;6.4;99.9
49901;DHT22;35789;48.414;12.768;2023-11-22T00:50:00;6.4;99.9
49901;DHT22;35789;48.414;12.768;2023-11-22T00:55:00;6.4;99.9
49901;DHT22;35789;48.414;12.768;2023-11-22T01:00:00;6.4;99.9
49901;DHT22;35789;48.414;12.768;2023-11-22T01:05:00;6.4;99.9
49901;DHT22;35789;48.414;12.768;2023-11-22T01:10:00;6.4;99.9
49901;DHT22;35789;48.414;12.768;2023-11-22T01:15:00;6.4;99.9
49901;DHT22;35789;48.414;12.768;2023-11-22T01:20:00;6.3;99.9
49901;DHT22;35789;48.414;12.768;2023-11-22T01:25:00;6.3;99.9
49901;DHT22;35789;48.414;12.768;2023-11-22T01:30:00;6.2;99.9
49901;DHT22;35789;48.414;12.768;2023-11-22T01:35:00;6.1;99.9
49901;DHT22;35789;48.414;12.768;2023-11-22T01:40:00;6.0;99.9
49901;DHT22;35789;48.414;12.768;2023-11-22T01:45:00;6.0;99.9
49901;DHT22;35789;48.414;12.768;2023-11-22T01:50:00;6.0;99.9
49901;DHT22;35789;48.414;12.768;2023-11-22T01:55:00;5.9;99.9
49901;DHT22;35789;48.414;12.768;2023-11-22T02:00:00;5.8;99.9
49901;DHT22;35789;48.414;12.768;2023-11-22T02:05:00;5.6;99.9
49901;DHT22;35789;48.414;12.768;2023-11-22T02:10:00;5.6;99.9
49901;DHT22;35789;48.414;12.768;2023-11-22T02:15:00;5.5;99.9
49901;DHT22;35789;48.414;12.768;2023-11-22T02:20:00;5.5;99.9
49901;DHT22;35789;48.414;12.768;2023-11-22T02:25:00;5.6;99.9
49901;DHT22;35789;48.414;12.768;2023-11-22T02:30:01;5.5;99.9
49901;DHT22;35789;48.414;12.768;2023-11-22T02:35:00;5.5;99.9
49901;DHT22;35789;48.414;12.768;2023-11-22T02:40:02;5.4;99.9
49901;DHT22;35789;48.414;12.768;2023-11-22T02:45:00;5.3;99.9
49901;DHT22;35789;48.414;12.768;2023-11-22T02:50:00;5.3;99.9
49901;DHT22;35789;48.414;12.768;2023-11-22T02:55:00;5.2;99.9
49901;DHT22;35789;48.414;12.768;2023-11-22T03:00:00;5.2;99.9
49901;DHT22;35789;48.414;12.768;2023-11-22T03:05:00;5.2;99.9
49901;DHT22;35789;48.414;12.768;2023-11-22T03:10:00;5.2;99.9
49901;DHT22;35789;48.414;12.768;2023-11-22T03:15:00;5.1;99.9
49901;DHT22;35789;48.414;12.768;2023-11-22T03:20:00;5.1;99.9
49901;DHT22;35789;48.414;12.768;2023-11-22T03:25:00;5.0;99.9
49901;DHT22;35789;48.414;12.768;2023-11-22T03:30:00;5.0;99.9
49901;DHT22;35789;48.414;12.768;2023-11-22T03:35:00;5.0;99.9
49901;DHT22;35789;48.414;12.768;2023-11-22T03:40:00;4.9;99.9
49901;DHT22;35789;48.414;12.768;2023-11-22T03:45:00;4.9;99.9
49901;DHT22;35789;48.414;12.768;2023-11-22T03:50:00;4.8;99.9
49901;DHT22;35789;48.414;12.768;2023-11-22T03:55:00;4.8;99.9
49901;DHT22;35789;48.414;12.768;2023-11-22T04:00:00;4.7;99.9
49901;DHT22;35789;48.414;12.768;2023-11-22T04:05:00;4.7;99.9
49901;DHT22;35789;48.414;12.768;2023-11-22T04:10:00;4.6;99.9
49901;DHT22;35789;48.414;12.768;2023-11-22T04:15:00;4.6;99.9
49901;DHT22;35789;48.414;12.768;2023-11-22T04:20:00;4.7;99.9
49901;DHT22;35789;48.414;12.768;2023-11-22T04:25:00;4.6;99.9
49901;DHT22;35789;48.414;12.768;2023-11-22T04:30:00;4.6;99.9
49901;DHT22;35789;48.414;12.768;2023-11-22T04:35:00;4.6;99.9
49901;DHT22;35789;48.414;12.768;2023-11-22T04:40:00;4.6;99.9
49901;DHT22;35789;48.414;12.768;2023-11-22T04:45:00;4.6;99.9
49901;DHT22;35789;48.414;12.768;2023-11-22T04:50:00;4.5;99.9
49901;DHT22;35789;48.414;12.768;2023-11-22T04:55:00;4.5;99.9
49901;DHT22;35789;48.414;12.768;2023-11-22T05:00:00;4.6;99.9
49901;DHT22;35789;48.414;12.768;2023-11-22T05:05:00;4.5;99.9
49901;DHT22;35789;48.414;12.768;2023-11-22T05:10:00;4.5;99.9
49901;DHT22;35789;48.414;12.768;2023-11-22T05:15:00;4.5;99.9
49901;DHT22;35789;48.414;12.768;2023-11-22T05:20:00;4.4;99.9
49901;DHT22;35789;48.414;12.768;2023-11-22T05:25:00;4.4;99.9
49901;DHT22;35789;48.414;12.768;2023-11-22T05:30:00;4.4;99.9
49901;DHT22;35789;48.414;12.768;2023-11-22T05:35:00;4.4;99.9
49901;DHT22;35789;48.414;12.768;2023-11-22T05:40:00;4.3;99.9
49901;DHT22;35789;48.414;12.768;2023-11-22T05:45:00;4.3;99.9
49901;DHT22;35789;48.414;12.768;2023-11-22T05:50:00;4.3;99.9
49901;DHT22;35789;48.414;12.768;2023-11-22T05:55:00;4.3;99.9
49901;DHT22;35789;48.414;12.768;2023-11-22T06:00:00;4.3;99.9
49901;DHT22;35789;48.414;12.768;2023-11-22T06:05:00;4.3;99.9
49901;DHT22;35789;48.414;12.768;2023-11-22T06:10:00;4.3;99.9
49901;DHT22;35789;48.414;12.768;2023-11-22T06:15:00;4.3;99.9
49901;DHT22;35789;48.414;12.768;2023-11-22T06:20:00;4.2;99.9
49901;DHT22;35789;48.414;12.768;2023-11-22T06:25:00;4.2;99.9
49901;DHT22;35789;48.414;12.768;2023-11-22T06:30:00;4.2;99.9
49901;DHT22;35789;48.414;12.768;2023-11-22T06:35:00;4.2;99.9
49901;DHT22;35789;48.414;12.768;2023-11-22T06:40:01;4.1;99.9
49901;DHT22;35789;48.414;12.768;2023-11-22T06:45:00;4.1;99.9
49901;DHT22;35789;48.414;12.768;2023-11-22T06:50:00;4.1;99.9
49901;DHT22;35789;48.414;12.768;2023-11-22T06:55:00;4.2;99.9
49901;DHT22;35789;48.414;12.768;2023-11-22T07:00:00;4.1;99.9
49901;DHT22;35789;48.414;12.768;2023-11-22T07:05:00;4.1;99.9
49901;DHT22;35789;48.414;12.768;2023-11-22T07:10:00;4.2;99.9
49901;DHT22;35789;48.414;12.768;2023-11-22T07:15:00;4.1;99.9
49901;DHT22;35789;48.414;12.768;2023-11-22T07:20:00;4.1;99.9
49901;DHT22;35789;48.414;12.768;2023-11-22T07:25:00;4.2;99.9
49901;DHT22;35789;48.414;12.768;2023-11-22T07:30:00;4.2;99.9
49901;DHT22;35789;48.414;12.768;2023-11-22T07:35:00;4.2;99.9
49901;DHT22;35789;48.414;12.768;2023-11-22T07:40:00;4.2;99.9
49901;DHT22;35789;48.414;12.768;2023-11-22T07:45:00;4.2;99.9
49901;DHT22;35789;48.414;12.768;2023-11-22T07:50:00;4.2;99.9
49901;DHT22;35789;48.414;12.768;2023-11-22T07:55:00;4.2;99.9
49901;DHT22;35789;48.414;12.768;2023-11-22T08:00:00;4.1;99.9
49901;DHT22;35789;48.414;12.768;2023-11-22T08:05:00;4.1;99.9
49901;DHT22;35789;48.414;12.768;2023-11-22T08:10:00;4.1;99.9
49901;DHT22;35789;48.414;12.768;2023-11-22T08:15:00;4.1;99.9
49901;DHT22;35789;48.414;12.768;2023-11-22T08:20:00;4.0;99.9
49901;DHT22;35789;48.414;12.768;2023-11-22T08:25:00;4.0;99.9
49901;DHT22;35789;48.414;12.768;2023-11-22T08:30:00;4.0;99.9
49901;DHT22;35789;48.414;12.768;2023-11-22T08:35:00;4.0;99.9
49901;DHT22;35789;48.414;12.768;2023-11-22T08:40:00;4.0;99.9
49901;DHT22;35789;48.414;12.768;2023-11-22T08:45:00;4.1;99.9
49901;DHT22;35789;48.414;12.768;2023-11-22T08:50:00;4.1;99.9
49901;DHT22;35789;48.414;12.768;2023-11-22T08:55:00;4.2;99.9
49901;DHT22;35789;48.414;12.768;2023-11-22T09:00:00;4.2;99.9
49901;DHT22;35789;48.414;12.768;2023-11-22T09:05:00;4.2;99.9
49901;DHT22;35789;48.414;12.768;2023-11-22T09:10:00;4.1;99.9
49901;DHT22;35789;48.414;12.768;2023-11-22T09:15:00;4.2;99.9
49901;DHT22;35789;48.414;12.768;2023-11-22T09:20:00;4.1;99.9
49901;DHT22;35789;48.414;12.768;2023-11-22T09:25:00;4.1;99.9
49901;DHT22;35789;48.414;12.768;2023-11-22T09:30:00;4.1;99.9
49901;DHT22;35789;48.414;12.768;2023-11-22T09:35:00;4.2;99.9
49901;DHT22;35789;48.414;12.768;2023-11-22T09:40:00;4.2;99.9
49901;DHT22;35789;48.414;12.768;2023-11-22T09:45:00;4.3;99.9
49901;DHT22;35789;48.414;12.768;2023-11-22T09:50:01;4.3;99.9
49901;DHT22;35789;48.414;12.768;2023-11-22T09:55:00;4.4;99.9
49901;DHT22;35789;48.414;12.768;2023-11-22T10:00:00;4.3;99.9
49901;DHT22;35789;48.414;12.768;2023-11-22T10:05:00;4.3;99.9
49901;DHT22;35789;48.414;12.768;2023-11-22T10:10:00;4.3;99.9
49901;DHT22;35789;48.414;12.768;2023-11-22T10:15:10;4.4;99.9
49901;DHT22;35789;48.414;12.768;2023-11-22T10:20:00;4.3;99.9
49901;DHT22;35789;48.414;12.768;2023-11-22T10:25:00;4.3;99.9
49901;DHT22;35789;48.414;12.768;2023-11-22T10:30:00;4.2;99.9
49901;DHT22;35789;48.414;12.768;2023-11-22T10:35:00;4.0;99.9
49901;DHT22;35789;48.414;12.768;2023-11-22T10:40:00;3.9;99.9
49901;DHT22;35789;48.414;12.768;2023-11-22T10:45:00;3.9;99.9
49901;DHT22;35789;48.414;12.768;2023-11-22T10:50:00;3.9;99.9
49901;DHT22;35789;48.414;12.768;2023-11-22T10:55:01;3.8;99.9
49901;DHT22;35789;48.414;12.768;2023-11-22T11:00:02;3.8;99.9
49901;DHT22;35789;48.414;12.768;2023-11-22T11:05:02;3.8;99.9
49901;DHT22;35789;48.414;12.768;2023-11-22T11:10:00;3.8;99.9
49901;DHT22;35789;48.414;12.768;2023-11-22T11:15:00;3.8;99.9
49901;DHT22;35789;48.414;12.768;2023-11-22T11:20:00;3.9;99.9
49901;DHT22;35789;48.414;12.768;2023-11-22T11:25:00;3.8;99.9
49901;DHT22;35789;48.414;12.768;2023-11-22T11:30:00;3.9;99.9
49901;DHT22;35789;48.414;12.768;2023-11-22T11:35:00;3.9;99.9
49901;DHT22;35789;48.414;12.768;2023-11-22T11:40:00;3.9;99.9
49901;DHT22;35789;48.414;12.768;2023-11-22T11:45:04;3.9;99.9
49901;DHT22;35789;48.414;12.768;2023-11-22T11:50:00;3.9;99.9
49901;DHT22;35789;48.414;12.768;2023-11-22T11:55:00;3.9;99.9
49901;DHT22;35789;48.414;12.768;2023-11-22T12:00:00;3.9;99.9
49901;DHT22;35789;48.414;12.768;2023-11-22T12:05:00;3.9;99.9
49901;DHT22;35789;48.414;12.768;2023-11-22T12:10:00;3.9;99.9
49901;DHT22;35789;48.414;12.768;2023-11-22T12:15:00;3.8;99.9
49901;DHT22;35789;48.414;12.768;2023-11-22T12:25:00;3.6;99.9
49901;DHT22;35789;48.414;12.768;2023-11-22T12:30:00;3.7;99.9
49901;DHT22;35789;48.414;12.768;2023-11-22T12:35:00;3.7;99.9
49901;DHT22;35789;48.414;12.768;2023-11-22T12:40:06;3.8;99.9
49901;DHT22;35789;48.414;12.768;2023-11-22T12:45:00;3.8;99.9
49901;DHT22;35789;48.414;12.768;2023-11-22T12:50:00;3.7;99.9
49901;DHT22;35789;48.414;12.768;2023-11-22T12:55:00;3.6;99.9
49901;DHT22;35789;48.414;12.768;2023-11-22T13:00:00;3.6;99.9
49901;DHT22;35789;48.414;12.768;2023-11-22T13:05:00;3.6;99.9
49901;DHT22;35789;48.414;12.768;2023-11-22T13:10:00;3.7;99.9
49901;DHT22;35789;48.414;12.768;2023-11-22T13:15:00;3.7;99.9
49901;DHT22;35789;48.414;12.768;2023-11-22T13:20:00;3.7;99.9
49901;DHT22;35789;48.414;12.768;2023-11-22T13:25:00;3.6;99.9
49901;DHT22;35789;48.414;12.768;2023-11-22T13:30:00;3.5;99.9
49901;DHT22;35789;48.414;12.768;2023-11-22T13:35:00;3.5;99.9
49901;DHT22;35789;48.414;12.768;2023-11-22T13:40:00;3.5;99.9
49901;DHT22;35789;48.414;12.768;2023-11-22T13:45:00;3.6;99.9
49901;DHT22;35789;48.414;12.768;2023-11-22T13:50:00;3.6;99.9
49901;DHT22;35789;48.414;12.768;2023-11-22T13:55:00;3.7;99.9
49901;DHT22;35789;48.414;12.768;2023-11-22T14:00:00;3.6;99.9
49901;DHT22;35789;48.414;12.768;2023-11-22T14:05:00;3.7;99.9
49901;DHT22;35789;48.414;12.768;2023-11-22T14:10:00;3.7;99.9
49901;DHT22;35789;48.414;12.768;2023-11-22T14:15:00;3.8;99.9
49901;DHT22;35789;48.414;12.768;2023-11-22T14:20:00;3.8;99.9
49901;DHT22;35789;48.414;12.768;2023-11-22T14:25:00;3.8;99.9
49901;DHT22;35789;48.414;12.768;2023-11-22T14:30:00;3.8;99.9
49901;DHT22;35789;48.414;12.768;2023-11-22T14:35:00;3.7;99.9
49901;DHT22;35789;48.414;12.768;2023-11-22T14:40:00;3.7;99.9
49901;DHT22;35789;48.414;12.768;2023-11-22T14:45:00;3.7;99.9
49901;DHT22;35789;48.414;12.768;2023-11-22T14:50:00;3.7;99.9
49901;DHT22;35789;48.414;12.768;2023-11-22T14:55:00;3.6;99.9
49901;DHT22;35789;48.414;12.768;2023-11-22T15:00:00;3.6;99.9
49901;DHT22;35789;48.414;12.768;2023-11-22T15:05:00;3.5;99.9
49901;DHT22;35789;48.414;12.768;2023-11-22T15:10:00;3.5;99.9
49901;DHT22;35789;48.414;12.768;2023-11-22T15:15:00;3.4;99.9
49901;DHT22;35789;48.414;12.768;2023-11-22T15:20:00;3.4;99.9
49901;DHT22;35789;48.414;12.768;2023-11-22T15:25:00;3.5;99.9
49901;DHT22;35789;48.414;12.768;2023-11-22T15:30:00;3.5;99.9
49901;DHT22;35789;48.414;12.768;2023-11-22T15:35:00;3.5;99.9
49901;DHT22;35789;48.414;12.768;2023-11-22T15:40:00;3.5;99.9
49901;DHT22;35789;48.414;12.768;2023-11-22T15:45:00;3.5;99.9
49901;DHT22;35789;48.414;12.768;2023-11-22T15:50:00;3.4;99.9
49901;DHT22;35789;48.414;12.768;2023-11-22T15:55:00;3.4;99.9
49901;DHT22;35789;48.414;12.768;2023-11-22T16:00:00;3.3;99.9
49901;DHT22;35789;48.414;12.768;2023-11-22T16:05:00;3.3;99.9
49901;DHT22;35789;48.414;12.768;2023-11-22T16:10:00;3.3;99.9
49901;DHT22;35789;48.414;12.768;2023-11-22T16:15:00;3.3;99.9
49901;DHT22;35789;48.414;12.768;2023-11-22T16:20:00;3.2;99.9
49901;DHT22;35789;48.414;12.768;2023-11-22T16:25:00;3.3;99.9
49901;DHT22;35789;48.414;12.768;2023-11-22T16:30:00;3.3;99.9
49901;DHT22;35789;48.414;12.768;2023-11-22T16:35:00;3.3;99.9
49901;DHT22;35789;48.414;12.768;2023-11-22T16:40:00;3.3;99.9
49901;DHT22;35789;48.414;12.768;2023-11-22T16:45:01;3.3;99.9
49901;DHT22;35789;48.414;12.768;2023-11-22T16:50:00;3.2;99.9
49901;DHT22;35789;48.414;12.768;2023-11-22T16:55:00;3.2;99.9
49901;DHT22;35789;48.414;12.768;2023-11-22T17:00:00;3.2;99.9
49901;DHT22;35789;48.414;12.768;2023-11-22T17:05:00;3.2;99.9
49901;DHT22;35789;48.414;12.768;2023-11-22T17:10:00;3.2;99.9
49901;DHT22;35789;48.414;12.768;2023-11-22T17:15:00;3.2;99.9
49901;DHT22;35789;48.414;12.768;2023-11-22T17:20:00;3.2;99.9
49901;DHT22;35789;48.414;12.768;2023-11-22T17:25:00;3.1;99.9
49901;DHT22;35789;48.414;12.768;2023-11-22T17:30:00;3.2;99.9
49901;DHT22;35789;48.414;12.768;2023-11-22T17:35:00;3.1;99.9
49901;DHT22;35789;48.414;12.768;2023-11-22T17:40:00;3.1;99.9
49901;DHT22;35789;48.414;12.768;2023-11-22T17:45:00;3.1;99.9
49901;DHT22;35789;48.414;12.768;2023-11-22T17:50:00;3.1;99.9
49901;DHT22;35789;48.414;12.768;2023-11-22T17:55:00;3.1;99.9
49901;DHT22;35789;48.414;12.768;2023-11-22T18:00:00;3.2;99.9
49901;DHT22;35789;48.414;12.768;2023-11-22T18:05:00;3.2;99.9
49901;DHT22;35789;48.414;12.768;2023-11-22T18:10:00;3.2;99.9
49901;DHT22;35789;48.414;12.768;2023-11-22T18:15:00;3.2;99.9
49901;DHT22;35789;48.414;12.768;2023-11-22T18:20:00;3.2;99.9
49901;DHT22;35789;48.414;12.768;2023-11-22T18:25:00;3.2;99.9
49901;DHT22;35789;48.414;12.768;2023-11-22T18:30:00;3.2;99.9
49901;DHT22;35789;48.414;12.768;2023-11-22T18:35:00;3.1;99.9
49901;DHT22;35789;48.414;12.768;2023-11-22T18:40:00;3.1;99.9
49901;DHT22;35789;48.414;12.768;2023-11-22T18:45:00;3.1;99.9
49901;DHT22;35789;48.414;12.768;2023-11-22T18:50:00;3.1;99.9
49901;DHT22;35789;48.414;12.768;2023-11-22T18:55:00;3.1;99.9
49901;DHT22;35789;48.414;12.768;2023-11-22T19:00:00;3.0;99.9
49901;DHT22;35789;48.414;12.768;2023-11-22T19:05:00;3.0;99.9
49901;DHT22;35789;48.414;12.768;2023-11-22T19:10:00;3.0;99.9
49901;DHT22;35789;48.414;12.768;2023-11-22T19:15:00;2.9;99.9
49901;DHT22;35789;48.414;12.768;2023-11-22T19:20:00;2.9;99.9
49901;DHT22;35789;48.414;12.768;2023-11-22T19:25:00;2.9;99.9
49901;DHT22;35789;48.414;12.768;2023-11-22T19:30:00;2.9;99.9
49901;DHT22;35789;48.414;12.768;2023-11-22T19:35:00;2.9;99.9
49901;DHT22;35789;48.414;12.768;2023-11-22T19:40:00;2.9;99.9
49901;DHT22;35789;48.414;12.768;2023-11-22T19:45:00;3.0;99.9
49901;DHT22;35789;48.414;12.768;2023-11-22T19:50:00;3.0;99.9
49901;DHT22;35789;48.414;12.768;2023-11-22T19:55:00;3.0;99.9
49901;DHT22;35789;48.414;12.768;2023-11-22T20:00:00;2.9;99.9
49901;DHT22;35789;48.414;12.768;2023-11-22T20:05:00;2.9;99.9
49901;DHT22;35789;48.414;12.768;2023-11-22T20:10:00;2.9;99.9
49901;DHT22;35789;48.414;12.768;2023-11-22T20:15:00;2.8;99.9
49901;DHT22;35789;48.414;12.768;2023-11-22T20:20:00;2.9;99.9
49901;DHT22;35789;48.414;12.768;2023-11-22T20:25:00;2.9;99.9
49901;DHT22;35789;48.414;12.768;2023-11-22T20:30:00;2.9;99.9
49901;DHT22;35789;48.414;12.768;2023-11-22T20:35:00;2.9;99.9
49901;DHT22;35789;48.414;12.768;2023-11-22T20:40:00;2.9;99.9
49901;DHT22;35789;48.414;12.768;2023-11-22T20:45:00;2.8;99.9
49901;DHT22;35789;48.414;12.768;2023-11-22T20:50:00;2.8;99.9
49901;DHT22;35789;48.414;12.768;2023-11-22T20:55:00;2.8;99.9
49901;DHT22;35789;48.414;12.768;2023-11-22T21:00:00;2.9;99.9
49901;DHT22;35789;48.414;12.768;2023-11-22T21:05:00;2.9;99.9
49901;DHT22;35789;48.414;12.768;2023-11-22T21:10:00;2.9;99.9
49901;DHT22;35789;48.414;12.768;2023-11-22T21:15:00;2.9;99.9
49901;DHT22;35789;48.414;12.768;2023-11-22T21:20:00;2.8;99.9
49901;DHT22;35789;48.414;12.768;2023-11-22T21:25:00;2.9;99.9
49901;DHT22;35789;48.414;12.768;2023-11-22T21:30:00;2.8;99.9
49901;DHT22;35789;48.414;12.768;2023-11-22T21:35:01;2.9;99.9
49901;DHT22;35789;48.414;12.768;2023-11-22T21:40:00;2.9;99.9
49901;DHT22;35789;48.414;12.768;2023-11-22T21:45:00;2.9;99.9
49901;DHT22;35789;48.414;12.768;2023-11-22T21:50:00;2.9;99.9
49901;DHT22;35789;48.414;12.768;2023-11-22T21:55:00;2.9;99.9
49901;DHT22;35789;48.414;12.768;2023-11-22T22:00:00;2.9;99.9
49901;DHT22;35789;48.414;12.768;2023-11-22T22:05:00;2.8;99.9
49901;DHT22;35789;48.414;12.768;2023-11-22T22:10:00;2.9;99.9
49901;DHT22;35789;48.414;12.768;2023-11-22T22:15:00;2.9;99.9
49901;DHT22;35789;48.414;12.768;2023-11-22T22:20:00;2.9;99.9
49901;DHT22;35789;48.414;12.768;2023-11-22T22:25:00;2.9;99.9
49901;DHT22;35789;48.414;12.768;2023-11-22T22:30:00;2.9;99.9
49901;DHT22;35789;48.414;12.768;2023-11-22T22:35:00;2.8;99.9
49901;DHT22;35789;48.414;12.768;2023-11-22T22:40:00;2.9;99.9
49901;DHT22;35789;48.414;12.768;2023-11-22T22:45:00;2.9;99.9
49901;DHT22;35789;48.414;12.768;2023-11-22T22:50:00;2.8;99.9
49901;DHT22;35789;48.414;12.768;2023-11-22T22:55:00;2.9;99.9
49901;DHT22;35789;48.414;12.768;2023-11-22T23:00:00;2.9;99.9
49901;DHT22;35789;48.414;12.768;2023-11-22T23:05:00;2.9;99.9
49901;DHT22;35789;48.414;12.768;2023-11-22T23:10:00;2.9;99.9
49901;DHT22;35789;48.414;12.768;2023-11-22T23:15:00;2.9;99.9
49901;DHT22;35789;48.414;12.768;2023-11-22T23:20:00;2.9;99.9
49901;DHT22;35789;48.414;12.768;2023-11-22T23:25:00;2.8;99.9
49901;DHT22;35789;48.414;12.768;2023-11-22T23:30:00;2.8;99.9
49901;DHT22;35789;48.414;12.768;2023-11-22T23:35:00;2.9;99.9
49901;DHT22;35789;48.414;12.768;2023-11-22T23:40:00;2.9;99.9
49901;DHT22;35789;48.414;12.768;2023-11-22T23:45:00;2.9;99.9
49901;DHT22;35789;48.414;12.768;2023-11-22T23:50:00;2.9;99.9
49901;DHT22;35789;48.414;12.768;2023-11-22T23:55:00;2.9;99.9
